Time;durP1;ratioP1;P1;durP2;ratioP2;P2;SDS_P1;SDS_P2;PMS_P1;PMS_P2;Temp;Humidity;BMP_temperature;BMP_pressure;BME280_temperature;BME280_humidity;BME280_pressure;Samples;Min_cycle;Max_cycle;Signal;HPM_P1;HPM_P2
2022/11/03 00:00:28;;;;;;;16.92;3.30;;;15.00;99.90;;;;;;5093210;28;20051;-48
2022/11/03 00:02:54;;;;;;;23.23;3.67;;;15.00;99.90;;;;;;5093250;28;20012;-50
2022/11/03 00:08:04;;;;;;;17.83;2.90;;;14.90;99.90;;;;;;5093456;28;20122;-51
2022/11/03 00:10:29;;;;;;;17.65;3.30;;;14.80;99.90;;;;;;5093010;28;20548;-51
2022/11/03 00:12:55;;;;;;;23.33;4.60;;;14.80;99.90;;;;;;5092829;28;20013;-49
2022/11/03 00:15:21;;;;;;;27.27;3.63;;;14.80;99.90;;;;;;5093187;28;20433;-51
2022/11/03 00:17:47;;;;;;;18.15;3.95;;;14.70;99.90;;;;;;5092129;28;20060;-49
2022/11/03 00:20:12;;;;;;;19.10;4.10;;;14.70;99.90;;;;;;5082774;28;20024;-48
2022/11/03 00:22:38;;;;;;;22.30;4.03;;;14.60;99.90;;;;;;5090501;28;20028;-49
2022/11/03 00:25:04;;;;;;;36.30;5.78;;;14.50;99.90;;;;;;5084999;28;20016;-50
2022/11/03 00:27:29;;;;;;;25.25;3.85;;;14.40;99.90;;;;;;5078970;28;20535;-49
2022/11/03 00:29:55;;;;;;;23.70;3.70;;;14.30;99.90;;;;;;5086043;28;20028;-55
2022/11/03 00:32:21;;;;;;;21.75;4.38;;;14.30;99.90;;;;;;5079437;28;20084;-53
2022/11/03 00:34:46;;;;;;;26.38;4.78;;;14.20;99.90;;;;;;5077444;28;20089;-50
2022/11/03 00:37:12;;;;;;;10.82;1.90;;;14.20;99.90;;;;;;5078916;28;20408;-46
2022/11/03 00:39:37;;;;;;;3.05;0.70;;;13.90;99.90;;;;;;5088233;28;20024;-49
2022/11/03 00:42:03;;;;;;;0.47;0.40;;;13.60;99.90;;;;;;5088452;28;20019;-52
2022/11/03 00:44:29;;;;;;;0.32;0.30;;;13.30;99.90;;;;;;5087921;28;20162;-55
2022/11/03 00:46:55;;;;;;;2.63;0.50;;;13.10;99.90;;;;;;5090909;28;20016;-47
2022/11/03 00:49:21;;;;;;;0.98;0.50;;;12.90;99.90;;;;;;5078454;28;20480;-48
2022/11/03 00:51:46;;;;;;;1.67;0.50;;;12.80;99.90;;;;;;5080763;28;20035;-50
2022/11/03 00:54:12;;;;;;;4.25;0.73;;;12.70;99.90;;;;;;5091219;28;20384;-48
2022/11/03 00:56:40;;;;;;;0.80;0.50;;;12.70;99.90;;;;;;5089347;28;20020;-50
2022/11/03 00:59:07;;;;;;;1.38;0.60;;;12.60;99.90;;;;;;5092610;28;20028;-49
2022/11/03 01:01:41;;;;;;;4.97;1.08;;;12.60;99.90;;;;;;5091937;28;20012;-51
2022/11/03 01:06:55;;;;;;;26.92;3.70;;;12.70;99.90;;;;;;5090267;28;20073;-49
2022/11/03 01:09:23;;;;;;;30.83;4.72;;;13.00;99.90;;;;;;5091592;28;20055;-50
2022/11/03 01:11:54;;;;;;;32.20;4.32;;;13.30;99.90;;;;;;5088906;28;20039;-49
2022/11/03 01:14:20;;;;;;;32.10;5.28;;;13.50;99.90;;;;;;5091471;28;20066;-54
2022/11/03 01:16:46;;;;;;;24.38;4.50;;;13.60;99.90;;;;;;5091565;28;20422;-51
2022/11/03 01:19:12;;;;;;;33.75;4.78;;;13.60;99.90;;;;;;5091419;28;20048;-49
2022/11/03 01:21:37;;;;;;;23.52;4.38;;;13.60;99.90;;;;;;5091193;28;20024;-48
2022/11/03 01:24:04;;;;;;;26.13;4.20;;;13.70;99.90;;;;;;5091923;28;20039;-49
2022/11/03 01:26:30;;;;;;;22.50;3.25;;;13.70;99.90;;;;;;5091597;28;20031;-48
2022/11/03 01:28:58;;;;;;;21.35;3.78;;;13.80;99.90;;;;;;5091559;28;20510;-49
2022/11/03 01:31:24;;;;;;;22.80;4.07;;;13.70;99.90;;;;;;5091872;28;20024;-52
2022/11/03 01:33:52;;;;;;;19.00;3.40;;;13.70;99.90;;;;;;5091532;28;20016;-53
2022/11/03 01:36:19;;;;;;;24.33;3.83;;;13.70;99.90;;;;;;5091527;28;20032;-48
2022/11/03 01:38:44;;;;;;;19.20;3.25;;;13.70;99.90;;;;;;5091268;28;20020;-48
2022/11/03 01:41:16;;;;;;;23.13;3.60;;;13.60;99.90;;;;;;5091584;28;20039;-52
2022/11/03 01:43:42;;;;;;;15.68;3.40;;;13.70;99.90;;;;;;5091453;28;20476;-47
2022/11/03 01:46:11;;;;;;;19.52;3.00;;;13.60;99.90;;;;;;5091285;28;20097;-53
2022/11/03 01:48:45;;;;;;;14.68;3.08;;;13.60;99.90;;;;;;5091282;28;20012;-47
2022/11/03 01:51:14;;;;;;;20.60;3.42;;;13.60;99.90;;;;;;5090584;28;20451;-52
2022/11/03 01:53:43;;;;;;;22.45;2.78;;;13.60;99.90;;;;;;5091374;28;20031;-52
2022/11/03 01:56:10;;;;;;;25.70;3.45;;;13.60;99.90;;;;;;5091192;28;20485;-48
2022/11/03 01:58:40;;;;;;;21.08;3.08;;;13.50;99.90;;;;;;5091284;28;20020;-47
2022/11/03 02:01:05;;;;;;;;;;;13.60;99.90;;;;;;5091572;28;20035;-54
2022/11/03 02:03:36;;;;;;;21.05;2.75;;;13.60;99.90;;;;;;5091108;28;19912;-49
2022/11/03 02:06:03;;;;;;;26.25;3.78;;;13.60;99.90;;;;;;5091276;28;20020;-51
2022/11/03 02:08:40;;;;;;;27.23;3.83;;;13.60;99.90;;;;;;5091266;28;20063;-52
2022/11/03 02:13:50;;;;;;;23.80;4.18;;;13.60;99.90;;;;;;5079068;28;20027;-46
2022/11/03 02:16:18;;;;;;;27.85;4.70;;;13.70;99.90;;;;;;5091350;28;20036;-47
2022/11/03 02:18:45;;;;;;;34.15;4.28;;;13.70;99.90;;;;;;5090983;28;20040;-48
2022/11/03 02:21:50;;;;;;;26.35;4.78;;;13.80;99.90;;;;;;5091049;28;20385;-49
2022/11/03 02:24:34;;;;;;;25.23;4.07;;;13.90;99.90;;;;;;5071554;28;20113;-56
2022/11/03 02:27:00;;;;;;;26.67;4.45;;;13.90;99.90;;;;;;5090859;28;20485;-52
2022/11/03 02:29:26;;;;;;;32.80;4.40;;;13.90;99.90;;;;;;5090763;28;20105;-47
2022/11/03 02:32:04;;;;;;;24.08;4.00;;;14.00;99.90;;;;;;5089585;28;20427;-50
2022/11/03 02:34:59;;;;;;;27.73;4.25;;;14.00;99.90;;;;;;5090873;28;20028;-50
2022/11/03 02:37:35;;;;;;;24.55;4.15;;;14.00;99.90;;;;;;5090768;28;20024;-52
2022/11/03 02:40:11;;;;;;;27.38;4.45;;;14.00;99.90;;;;;;5090876;28;20028;-49
2022/11/03 02:42:41;;;;;;;25.40;4.07;;;14.10;99.90;;;;;;5087492;28;20031;-52
2022/11/03 02:45:09;;;;;;;26.00;4.10;;;14.10;99.90;;;;;;5090735;28;20028;-53
2022/11/03 02:47:38;;;;;;;26.73;4.18;;;14.00;99.90;;;;;;5090653;28;20026;-55
2022/11/03 02:50:07;;;;;;;26.27;3.80;;;14.00;99.90;;;;;;5090819;28;20071;-55
2022/11/03 02:52:32;;;;;;;17.77;3.05;;;14.00;99.90;;;;;;5090603;28;20388;-50
2022/11/03 02:55:08;;;;;;;15.70;2.83;;;13.90;99.90;;;;;;5090764;28;20038;-48
2022/11/03 02:57:37;;;;;;;12.15;3.08;;;13.80;99.90;;;;;;5090568;28;20069;-49
2022/11/03 03:00:06;;;;;;;21.30;3.53;;;13.70;99.90;;;;;;5090574;28;20116;-50
2022/11/03 03:02:43;;;;;;;15.18;3.00;;;13.70;99.90;;;;;;5092195;28;20098;-49
2022/11/03 03:05:11;;;;;;;15.65;2.85;;;13.60;99.90;;;;;;5094558;28;20034;-50
2022/11/03 03:07:43;;;;;;;15.43;2.90;;;13.60;99.90;;;;;;5094586;28;20055;-48
2022/11/03 03:10:22;;;;;;;10.57;2.78;;;13.60;99.90;;;;;;5094239;28;20086;-49
2022/11/03 03:12:52;;;;;;;12.35;2.20;;;13.60;99.90;;;;;;5094438;28;20483;-57
2022/11/03 03:15:22;;;;;;;19.95;2.10;;;13.50;99.90;;;;;;5094268;28;20035;-47
2022/11/03 03:18:00;;;;;;;7.90;1.95;;;13.50;99.90;;;;;;5093153;28;20071;-47
2022/11/03 03:20:28;;;;;;;8.48;1.50;;;13.40;99.90;;;;;;5093928;28;20028;-53
2022/11/03 03:23:15;;;;;;;5.13;1.20;;;13.40;99.90;;;;;;5094341;28;20038;-50
2022/11/03 03:25:46;;;;;;;3.42;1.05;;;13.10;99.90;;;;;;5094239;28;20051;-50
2022/11/03 03:28:18;;;;;;;8.65;1.25;;;13.00;99.90;;;;;;5094123;28;20024;-50
2022/11/03 03:30:46;;;;;;;10.80;1.48;;;13.00;99.90;;;;;;5094037;28;20024;-48
2022/11/03 03:33:12;;;;;;;6.38;1.48;;;13.10;99.90;;;;;;5094003;28;20020;-48
2022/11/03 03:35:41;;;;;;;11.88;1.30;;;13.10;99.90;;;;;;5094033;28;20481;-52
2022/11/03 03:38:16;;;;;;;11.85;1.73;;;13.00;99.90;;;;;;5093964;28;20032;-53
2022/11/03 03:40:45;;;;;;;8.85;1.42;;;13.00;99.90;;;;;;5093874;28;20033;-51
2022/11/03 03:43:13;;;;;;;5.45;0.95;;;12.90;99.90;;;;;;5093705;28;20023;-50
2022/11/03 03:45:43;;;;;;;5.55;0.93;;;12.80;99.90;;;;;;5093621;28;20084;-50
2022/11/03 03:48:09;;;;;;;3.15;0.70;;;12.70;99.90;;;;;;5093529;28;20024;-49
2022/11/03 03:50:37;;;;;;;3.90;0.70;;;12.60;99.90;;;;;;5093424;28;20032;-47
2022/11/03 03:53:06;;;;;;;4.90;0.80;;;12.60;99.90;;;;;;5093654;28;20045;-46
2022/11/03 03:55:39;;;;;;;9.73;1.30;;;12.70;99.90;;;;;;5093553;28;20108;-47
2022/11/03 03:58:06;;;;;;;8.27;1.30;;;12.70;99.90;;;;;;5093543;28;20279;-51
2022/11/03 04:00:32;;;;;;;4.32;1.10;;;12.80;99.90;;;;;;5093890;28;20038;-46
2022/11/03 04:02:58;;;;;;;8.52;1.40;;;12.80;99.90;;;;;;5093723;28;20485;-49
2022/11/03 04:05:25;;;;;;;7.53;1.20;;;12.70;99.90;;;;;;5093384;28;20012;-50
2022/11/03 04:07:51;;;;;;;5.93;1.25;;;12.60;99.90;;;;;;5093335;28;20073;-52
2022/11/03 04:10:20;;;;;;;4.05;0.60;;;12.60;99.90;;;;;;5091693;28;20048;-50
2022/11/03 04:23:44;;;;;;;6.68;1.20;;;12.40;99.90;;;;;;5093145;28;20088;-55
2022/11/03 04:26:16;;;;;;;6.70;1.08;;;12.40;99.90;;;;;;5092928;28;20021;-54
2022/11/03 04:28:42;;;;;;;6.57;0.95;;;12.50;99.90;;;;;;5092794;28;20035;-47
2022/11/03 04:31:18;;;;;;;4.07;0.93;;;12.60;99.90;;;;;;5092779;28;20412;-55
2022/11/03 04:33:44;;;;;;;7.35;1.70;;;12.70;99.90;;;;;;5092908;28;20024;-55
2022/11/03 04:36:14;;;;;;;12.70;1.70;;;12.90;99.90;;;;;;5092753;28;20031;-51
2022/11/03 04:38:42;;;;;;;6.93;1.77;;;13.00;99.90;;;;;;5092918;28;20016;-47
2022/11/03 04:41:16;;;;;;;13.85;2.05;;;13.00;99.90;;;;;;5092871;28;20055;-53
2022/11/03 04:43:42;;;;;;;13.63;3.30;;;13.10;99.90;;;;;;5092688;28;20503;-50
2022/11/03 04:46:14;;;;;;;19.15;3.65;;;13.10;99.90;;;;;;5092438;28;20024;-47
2022/11/03 04:48:40;;;;;;;25.33;4.90;;;13.30;99.90;;;;;;5092462;28;20036;-57
2022/11/03 04:51:28;;;;;;;27.98;4.32;;;13.40;99.90;;;;;;5092306;28;20476;-53
2022/11/03 04:54:01;;;;;;;20.63;4.75;;;13.50;99.90;;;;;;5092520;28;20093;-53
2022/11/03 04:56:27;;;;;;;28.30;4.80;;;13.60;99.90;;;;;;5092138;28;20077;-52
2022/11/03 04:58:53;;;;;;;27.40;4.68;;;13.60;99.90;;;;;;5092163;28;20426;-52
2022/11/03 05:01:21;;;;;;;21.88;4.65;;;13.60;99.90;;;;;;5092173;28;20107;-52
2022/11/03 05:03:49;;;;;;;18.50;3.85;;;13.60;99.90;;;;;;5092192;28;20024;-51
2022/11/03 05:06:20;;;;;;;29.02;4.90;;;13.60;99.90;;;;;;5092112;28;20028;-47
2022/11/03 05:09:01;;;;;;;21.77;5.15;;;13.60;99.90;;;;;;5091994;28;20096;-50
2022/11/03 05:11:35;;;;;;;19.17;5.10;;;13.60;99.90;;;;;;5092172;28;20078;-49
2022/11/03 05:14:05;;;;;;;23.35;4.18;;;13.60;99.90;;;;;;5092240;28;20028;-49
2022/11/03 05:16:31;;;;;;;20.13;4.57;;;13.60;99.90;;;;;;5091931;28;20043;-49
2022/11/03 05:18:57;;;;;;;27.67;5.65;;;13.60;99.90;;;;;;5091803;28;20040;-52
2022/11/03 05:21:25;;;;;;;26.67;4.80;;;13.70;99.90;;;;;;5091893;28;20391;-46
2022/11/03 05:24:00;;;;;;;24.30;5.00;;;13.60;99.90;;;;;;5091664;28;20520;-54
2022/11/03 05:26:28;;;;;;;29.10;5.70;;;13.60;99.90;;;;;;5090829;28;20508;-48
2022/11/03 05:29:09;;;;;;;25.00;4.90;;;13.70;99.90;;;;;;5091662;28;20515;-51
2022/11/03 05:31:38;;;;;;;21.73;4.30;;;13.70;99.90;;;;;;5091677;28;20047;-51
2022/11/03 05:34:12;;;;;;;26.40;5.20;;;13.70;99.90;;;;;;5091449;28;20028;-49
2022/11/03 05:36:38;;;;;;;16.05;4.32;;;13.70;99.90;;;;;;5091772;28;20066;-52
2022/11/03 05:39:33;;;;;;;16.77;3.85;;;13.80;99.90;;;;;;5091731;28;20028;-49
2022/11/03 05:41:59;;;;;;;19.45;5.25;;;13.80;99.90;;;;;;5079897;28;20040;-55
2022/11/03 05:44:35;;;;;;;18.85;4.55;;;13.70;99.90;;;;;;5091365;28;20017;-53
2022/11/03 05:47:13;;;;;;;25.35;4.63;;;13.70;99.90;;;;;;5091348;28;20480;-51
2022/11/03 05:49:39;;;;;;;20.10;4.07;;;13.70;99.90;;;;;;5090917;28;20041;-51
2022/11/03 05:52:12;;;;;;;17.70;3.10;;;13.60;99.90;;;;;;5091477;28;20031;-49
2022/11/03 05:54:38;;;;;;;17.77;3.38;;;13.50;99.90;;;;;;5091072;28;20032;-47
2022/11/03 05:57:12;;;;;;;20.77;3.08;;;13.40;99.90;;;;;;5091586;28;20035;-46
2022/11/03 05:59:38;;;;;;;17.40;2.67;;;13.40;99.90;;;;;;5091160;28;20035;-46
2022/11/03 06:02:27;;;;;;;15.15;2.45;;;13.30;99.90;;;;;;5091487;28;20028;-49
2022/11/03 06:04:53;;;;;;;15.05;2.55;;;13.20;99.90;;;;;;5089713;28;20020;-49
2022/11/03 06:07:30;;;;;;;8.35;2.55;;;13.10;99.90;;;;;;5091279;28;20031;-48
2022/11/03 06:09:57;;;;;;;19.83;3.58;;;13.10;99.90;;;;;;5091261;28;20040;-51
2022/11/03 06:12:24;;;;;;;14.40;1.98;;;13.00;99.90;;;;;;5091406;28;20107;-51
2022/11/03 06:14:51;;;;;;;21.10;2.88;;;13.00;99.90;;;;;;5091017;28;20035;-49
2022/11/03 06:17:27;;;;;;;18.23;2.97;;;12.90;99.90;;;;;;5091250;28;20442;-53
2022/11/03 06:19:58;;;;;;;14.25;3.13;;;12.90;99.90;;;;;;5089868;28;20096;-48
2022/11/03 06:22:29;;;;;;;25.92;3.33;;;12.90;99.90;;;;;;5077526;28;20093;-53
2022/11/03 06:25:11;;;;;;;25.50;3.80;;;12.90;99.90;;;;;;5091043;28;20109;-50
2022/11/03 06:27:37;;;;;;;24.13;3.53;;;13.00;99.90;;;;;;5090968;28;20024;-49
2022/11/03 06:30:23;;;;;;;28.40;4.18;;;13.00;99.90;;;;;;5090818;28;20499;-52
2022/11/03 06:32:49;;;;;;;19.77;3.85;;;13.10;99.90;;;;;;5090980;28;20028;-57
2022/11/03 06:35:15;;;;;;;23.55;3.97;;;13.10;99.90;;;;;;5091144;28;20024;-50
2022/11/03 06:37:41;;;;;;;27.65;4.13;;;13.10;99.90;;;;;;5092715;28;20066;-49
2022/11/03 06:40:10;;;;;;;21.70;3.28;;;13.10;99.90;;;;;;5095207;28;20024;-53
2022/11/03 06:42:38;;;;;;;20.07;2.30;;;13.00;99.90;;;;;;5094967;28;20043;-48
2022/11/03 06:45:23;;;;;;;19.77;2.85;;;12.90;99.90;;;;;;5094932;28;20425;-47
2022/11/03 06:47:50;;;;;;;25.42;2.97;;;12.90;99.90;;;;;;5094910;28;20472;-52
2022/11/03 06:50:26;;;;;;;17.67;2.00;;;12.80;99.90;;;;;;5094884;28;20404;-50
2022/11/03 06:52:52;;;;;;;16.80;2.03;;;12.70;99.90;;;;;;5094661;28;20376;-51
2022/11/03 06:55:21;;;;;;;11.43;1.60;;;12.70;99.90;;;;;;5094572;28;20016;-47
2022/11/03 06:57:47;;;;;;;18.87;2.20;;;12.70;99.90;;;;;;5094922;28;20107;-52
2022/11/03 07:00:21;;;;;;;9.35;1.35;;;12.60;99.90;;;;;;5094804;28;20048;-46
2022/11/03 07:03:06;;;;;;;4.72;1.10;;;12.50;99.90;;;;;;5094796;28;20114;-50
2022/11/03 07:05:33;;;;;;;3.40;0.80;;;12.30;99.90;;;;;;5094686;28;20026;-51
2022/11/03 07:08:23;;;;;;;4.82;0.75;;;12.20;99.90;;;;;;5094989;28;20054;-48
2022/11/03 07:10:57;;;;;;;1.23;0.52;;;12.10;99.90;;;;;;5086238;28;20076;-54
2022/11/03 07:13:23;;;;;;;3.90;0.80;;;12.00;99.90;;;;;;5094482;28;20526;-51
2022/11/03 07:15:49;;;;;;;3.08;0.88;;;11.90;99.90;;;;;;5094381;28;20028;-50
2022/11/03 07:18:26;;;;;;;1.98;0.80;;;11.80;99.90;;;;;;5094105;28;20052;-51
2022/11/03 07:20:53;;;;;;;3.15;1.02;;;11.70;99.90;;;;;;5093223;28;20024;-50
2022/11/03 07:23:23;;;;;;;6.18;1.00;;;11.70;99.90;;;;;;5094050;28;20012;-51
2022/11/03 07:25:56;;;;;;;6.82;0.80;;;11.70;99.90;;;;;;5094117;28;20028;-47
2022/11/03 07:28:28;;;;;;;3.15;0.80;;;11.60;99.90;;;;;;5093947;28;20388;-51
2022/11/03 07:30:54;;;;;;;5.22;0.90;;;11.50;99.90;;;;;;5090841;28;20043;-51
2022/11/03 07:33:23;;;;;;;4.05;0.70;;;11.40;99.90;;;;;;5087600;28;20021;-48
2022/11/03 07:35:50;;;;;;;4.03;0.70;;;11.40;99.90;;;;;;5074516;28;20044;-48
2022/11/03 07:38:21;;;;;;;3.20;0.70;;;11.40;99.90;;;;;;5079465;28;20020;-49
2022/11/03 07:40:49;;;;;;;3.63;0.82;;;11.30;99.90;;;;;;5086488;28;20384;-55
2022/11/03 07:43:24;;;;;;;2.00;0.70;;;11.30;99.90;;;;;;5092180;28;20111;-52
2022/11/03 07:45:54;;;;;;;1.85;0.57;;;11.30;99.90;;;;;;5091159;28;20499;-49
2022/11/03 07:48:35;;;;;;;2.78;0.60;;;11.30;99.90;;;;;;5091823;28;20028;-47
2022/11/03 07:51:28;;;;;;;4.07;0.90;;;11.20;99.90;;;;;;5092706;28;20036;-48
2022/11/03 07:54:15;;;;;;;2.67;1.00;;;11.20;99.90;;;;;;5083218;28;20027;-51
2022/11/03 07:56:48;;;;;;;1.17;0.50;;;11.20;99.90;;;;;;5093148;28;20016;-54
2022/11/03 07:59:36;;;;;;;4.78;1.63;;;11.20;99.90;;;;;;5093043;28;20016;-57
2022/11/03 08:02:23;;;;;;;1.23;0.73;;;11.20;99.90;;;;;;5081548;28;20032;-54
2022/11/03 08:04:49;;;;;;;2.92;1.10;;;11.20;99.90;;;;;;5093126;28;20059;-55
2022/11/03 08:07:14;;;;;;;2.75;1.08;;;11.20;99.90;;;;;;5093326;28;20063;-54
2022/11/03 08:09:40;;;;;;;1.65;0.90;;;11.30;99.90;;;;;;5093148;28;20036;-54
2022/11/03 08:12:06;;;;;;;3.22;0.57;;;11.30;99.90;;;;;;5093214;28;20039;-47
2022/11/03 08:14:31;;;;;;;4.47;0.93;;;11.30;99.90;;;;;;5092978;28;20028;-49
2022/11/03 08:16:57;;;;;;;4.53;1.10;;;11.20;99.90;;;;;;5093326;28;20533;-47
2022/11/03 08:19:22;;;;;;;1.88;0.70;;;11.20;99.90;;;;;;5093170;28;20618;-51
2022/11/03 08:21:48;;;;;;;3.30;0.98;;;11.20;99.90;;;;;;5092933;28;20043;-52
2022/11/03 08:24:14;;;;;;;3.63;0.88;;;11.20;99.90;;;;;;5091714;28;20091;-49
2022/11/03 08:26:39;;;;;;;4.28;1.25;;;11.20;99.90;;;;;;5092984;28;20028;-53
2022/11/03 08:29:05;;;;;;;3.85;1.05;;;11.10;99.90;;;;;;5092734;28;20373;-47
2022/11/03 08:31:31;;;;;;;4.35;0.93;;;11.00;99.90;;;;;;5093035;28;20043;-49
2022/11/03 08:33:56;;;;;;;4.22;0.75;;;11.00;99.90;;;;;;5092842;28;20028;-46
2022/11/03 08:36:22;;;;;;;3.03;1.15;;;11.00;99.90;;;;;;5081620;28;20024;-56
2022/11/03 08:38:47;;;;;;;3.72;1.25;;;11.00;99.90;;;;;;5088377;28;20043;-47
2022/11/03 08:41:13;;;;;;;1.52;0.80;;;11.00;99.90;;;;;;5092222;28;20095;-51
2022/11/03 08:43:39;;;;;;;1.92;0.90;;;11.00;99.90;;;;;;5091885;28;20020;-52
2022/11/03 08:46:04;;;;;;;3.03;0.77;;;10.90;99.90;;;;;;5092526;28;20027;-49
2022/11/03 08:48:30;;;;;;;8.85;0.90;;;10.90;99.90;;;;;;5092735;28;20100;-47
2022/11/03 08:50:56;;;;;;;4.13;0.95;;;10.90;99.90;;;;;;5087383;28;20032;-48
2022/11/03 08:53:26;;;;;;;4.38;1.02;;;10.90;99.90;;;;;;5091965;28;20020;-47
2022/11/03 08:55:54;;;;;;;2.47;0.88;;;10.90;99.90;;;;;;5090418;28;20028;-48
2022/11/03 08:58:21;;;;;;;2.08;0.85;;;10.90;99.90;;;;;;5090329;28;20023;-52
2022/11/03 09:00:48;;;;;;;2.00;0.90;;;11.00;99.90;;;;;;5090772;28;20035;-47
2022/11/03 09:03:14;;;;;;;1.42;0.73;;;11.00;99.90;;;;;;5104504;28;20024;-47
2022/11/03 09:05:40;;;;;;;8.63;0.98;;;11.10;99.90;;;;;;5099478;28;20089;-50
2022/11/03 09:08:05;;;;;;;5.10;0.90;;;11.10;99.90;;;;;;5091506;28;20025;-50
2022/11/03 09:10:31;;;;;;;6.22;1.05;;;11.10;99.90;;;;;;5091971;28;20039;-49
2022/11/03 09:12:57;;;;;;;2.92;0.98;;;11.10;99.90;;;;;;5091346;28;20448;-52
2022/11/03 09:15:22;;;;;;;3.15;1.10;;;11.10;99.90;;;;;;5088752;28;20031;-47
2022/11/03 09:17:48;;;;;;;4.28;1.10;;;11.20;99.90;;;;;;5091662;28;20472;-48
2022/11/03 09:20:14;;;;;;;5.45;1.30;;;11.20;99.90;;;;;;5091180;28;20024;-49
2022/11/03 09:22:39;;;;;;;5.25;1.10;;;11.20;99.90;;;;;;5091787;28;20047;-46
2022/11/03 09:25:06;;;;;;;5.20;0.98;;;11.30;99.90;;;;;;5091466;28;20028;-46
2022/11/03 09:27:31;;;;;;;2.63;1.08;;;11.40;99.90;;;;;;5091887;28;20582;-46
2022/11/03 09:29:57;;;;;;;3.05;1.10;;;11.40;99.90;;;;;;5091569;28;20063;-46
2022/11/03 09:32:23;;;;;;;2.85;1.10;;;11.40;99.90;;;;;;5091154;28;20020;-49
2022/11/03 09:34:49;;;;;;;3.17;1.00;;;11.50;99.90;;;;;;5091395;28;20048;-46
2022/11/03 09:37:15;;;;;;;3.08;0.80;;;11.50;99.90;;;;;;5091711;28;20512;-47
2022/11/03 09:39:41;;;;;;;4.97;0.98;;;11.50;99.90;;;;;;5089950;28;20019;-46
2022/11/03 09:42:07;;;;;;;3.97;1.00;;;11.50;99.90;;;;;;5089646;28;20024;-50
2022/11/03 09:44:35;;;;;;;4.90;1.10;;;11.50;99.90;;;;;;5089595;28;20111;-49
2022/11/03 09:47:02;;;;;;;4.30;1.05;;;11.50;99.90;;;;;;5088843;28;20088;-53
2022/11/03 09:49:31;;;;;;;7.10;1.30;;;11.50;99.90;;;;;;5089684;28;20024;-49
2022/11/03 09:51:57;;;;;;;5.03;1.20;;;11.50;99.90;;;;;;5089860;28;20038;-54
2022/11/03 09:54:23;;;;;;;4.70;1.00;;;11.60;99.90;;;;;;5090002;28;20028;-50
2022/11/03 09:56:49;;;;;;;3.10;1.27;;;11.60;99.90;;;;;;5090671;28;20020;-47
2022/11/03 09:59:20;;;;;;;7.53;0.98;;;11.70;99.90;;;;;;5091167;28;20036;-51
2022/11/03 10:01:49;;;;;;;2.67;1.08;;;11.70;99.90;;;;;;5089101;28;20870;-48
2022/11/03 10:04:25;;;;;;;2.60;0.90;;;11.70;99.90;;;;;;5090286;28;20032;-46
2022/11/03 10:06:51;;;;;;;2.38;0.65;;;11.80;99.90;;;;;;5090842;28;20020;-45
2022/11/03 10:09:19;;;;;;;2.33;0.70;;;11.70;99.90;;;;;;5091264;28;20271;-54
2022/11/03 10:11:46;;;;;;;3.05;0.70;;;11.70;99.90;;;;;;5086724;28;20024;-52
2022/11/03 10:14:14;;;;;;;3.22;0.90;;;11.60;99.90;;;;;;5090788;28;20067;-48
2022/11/03 10:16:41;;;;;;;4.30;0.85;;;11.70;99.90;;;;;;5075172;28;20016;-48
2022/11/03 10:19:13;;;;;;;3.22;0.98;;;11.70;99.90;;;;;;5072735;28;20114;-50
2022/11/03 10:21:41;;;;;;;2.75;1.00;;;11.80;99.90;;;;;;5072530;28;20016;-46
2022/11/03 10:24:13;;;;;;;3.03;1.45;;;11.80;99.90;;;;;;5074535;28;20480;-47
2022/11/03 10:26:47;;;;;;;4.05;1.70;;;11.90;99.90;;;;;;5073110;28;20134;-50
2022/11/03 10:29:19;;;;;;;3.63;1.38;;;11.80;99.90;;;;;;5071496;28;20067;-51
2022/11/03 10:31:50;;;;;;;7.65;1.98;;;11.80;99.90;;;;;;5070925;28;20052;-51
2022/11/03 10:34:26;;;;;;;7.68;1.48;;;11.80;99.90;;;;;;5071286;28;20016;-49
2022/11/03 10:37:22;;;;;;;5.60;1.60;;;11.80;99.90;;;;;;5079191;28;20074;-49
2022/11/03 10:39:49;;;;;;;3.53;0.90;;;11.80;99.90;;;;;;5078455;28;20021;-45
2022/11/03 10:42:28;;;;;;;5.95;1.45;;;11.80;99.90;;;;;;5068166;28;20044;-48
2022/11/03 10:45:13;;;;;;;2.50;1.00;;;11.80;99.90;;;;;;5089236;28;20563;-44
2022/11/03 10:47:39;;;;;;;3.25;1.20;;;11.80;99.90;;;;;;5089655;28;20028;-48
2022/11/03 10:50:22;;;;;;;3.45;1.38;;;11.80;99.90;;;;;;5095533;28;20043;-52
2022/11/03 10:52:49;;;;;;;3.97;1.63;;;11.90;99.90;;;;;;5108856;28;20023;-48
2022/11/03 10:55:16;;;;;;;4.50;1.05;;;11.90;99.90;;;;;;5110779;28;20024;-56
2022/11/03 10:57:42;;;;;;;5.13;1.38;;;12.00;99.90;;;;;;5092757;28;20020;-51
2022/11/03 11:00:16;;;;;;;2.53;1.30;;;12.00;99.90;;;;;;5089160;28;20035;-50
2022/11/03 11:02:48;;;;;;;4.38;1.20;;;12.10;99.90;;;;;;5086782;28;20040;-55
2022/11/03 11:05:22;;;;;;;4.25;1.35;;;12.10;99.90;;;;;;5089108;28;20093;-50
2022/11/03 11:07:52;;;;;;;2.13;1.10;;;12.00;99.90;;;;;;5087371;28;20498;-47
2022/11/03 11:10:24;;;;;;;2.63;1.17;;;12.10;99.90;;;;;;5089673;28;20028;-49
2022/11/03 11:13:04;;;;;;;3.45;1.35;;;12.10;99.90;;;;;;5089383;28;20016;-46
2022/11/03 11:15:41;;;;;;;3.28;1.70;;;12.10;99.90;;;;;;5089300;28;20447;-49
2022/11/03 11:18:07;;;;;;;3.85;1.90;;;12.20;99.90;;;;;;5087537;28;20507;-49
2022/11/03 11:20:36;;;;;;;5.45;2.13;;;12.20;99.90;;;;;;5085742;28;20067;-44
2022/11/03 11:23:30;;;;;;;4.85;1.50;;;12.10;99.90;;;;;;5079256;28;20035;-48
2022/11/03 11:26:13;;;;;;;5.60;2.10;;;12.20;99.90;;;;;;5077003;28;20022;-50
2022/11/03 11:29:00;;;;;;;3.88;1.33;;;12.20;99.90;;;;;;5087972;28;20028;-50
2022/11/03 11:31:25;;;;;;;3.88;1.60;;;12.20;99.90;;;;;;5090576;28;20040;-50
2022/11/03 11:34:15;;;;;;;2.90;1.50;;;12.30;99.90;;;;;;5092778;28;20069;-51
2022/11/03 11:37:09;;;;;;;3.92;1.30;;;12.40;99.90;;;;;;5091850;28;20023;-57
2022/11/03 11:39:39;;;;;;;2.00;1.15;;;12.40;99.90;;;;;;5092657;28;20043;-44
2022/11/03 11:42:17;;;;;;;2.35;1.20;;;12.40;99.90;;;;;;5091338;28;20025;-50
2022/11/03 11:44:44;;;;;;;3.15;1.50;;;12.40;99.90;;;;;;5089597;28;20032;-43
2022/11/03 11:47:28;;;;;;;4.57;1.80;;;12.40;99.90;;;;;;5092893;28;20043;-47
2022/11/03 11:50:14;;;;;;;3.20;1.83;;;12.50;99.90;;;;;;5091028;28;20062;-52
2022/11/03 11:52:46;;;;;;;3.35;1.73;;;12.60;99.90;;;;;;5090453;28;20012;-52
2022/11/03 11:55:28;;;;;;;3.05;1.35;;;12.60;99.90;;;;;;5062860;28;20430;-45
2022/11/03 11:57:54;;;;;;;3.15;1.40;;;12.50;99.90;;;;;;5085348;28;20373;-47
2022/11/03 12:00:25;;;;;;;3.60;1.13;;;12.60;99.90;;;;;;5087254;28;20103;-49
2022/11/03 12:02:52;;;;;;;2.90;1.10;;;12.50;99.90;;;;;;5086910;28;20024;-50
2022/11/03 12:05:27;;;;;;;4.13;0.93;;;12.40;99.90;;;;;;5089740;28;20034;-50
2022/11/03 12:07:54;;;;;;;4.93;1.20;;;12.40;99.90;;;;;;5091662;28;20016;-52
2022/11/03 12:10:27;;;;;;;4.40;1.08;;;12.40;99.90;;;;;;5089107;28;20036;-49
2022/11/03 12:12:56;;;;;;;3.65;1.20;;;12.50;99.90;;;;;;5091914;28;20479;-48
2022/11/03 12:16:07;;;;;;;3.65;1.45;;;12.50;99.90;;;;;;5092118;28;20028;-48
2022/11/03 12:18:40;;;;;;;2.50;1.73;;;12.50;99.90;;;;;;5080734;28;20522;-51
2022/11/03 12:21:30;;;;;;;4.30;2.75;;;12.50;99.90;;;;;;5086434;28;20093;-48
2022/11/03 12:23:55;;;;;;;;;;;12.60;99.90;;;;;;5085663;28;20127;-47
2022/11/03 12:26:24;;;;;;;3.97;1.90;;;12.60;99.90;;;;;;5090269;28;20412;-47
2022/11/03 12:28:49;;;;;;;2.92;1.80;;;12.50;99.90;;;;;;5090127;28;20491;-49
2022/11/03 12:31:15;;;;;;;2.78;1.70;;;12.60;99.90;;;;;;5092132;28;20052;-49
2022/11/03 12:33:41;;;;;;;4.70;1.90;;;12.80;99.90;;;;;;5088454;28;20483;-45
2022/11/03 12:36:07;;;;;;;3.40;1.75;;;12.90;99.90;;;;;;5088464;28;20028;-51
2022/11/03 12:38:33;;;;;;;4.22;1.73;;;13.00;99.90;;;;;;5087395;28;20093;-57
2022/11/03 12:41:20;;;;;;;3.25;1.85;;;13.00;99.90;;;;;;5089393;28;20460;-46
2022/11/03 12:43:44;;;;;;;3.13;1.30;;;13.00;99.90;;;;;;5085343;28;20115;-47
2022/11/03 12:46:10;;;;;;;1.73;1.02;;;12.90;99.90;;;;;;5090402;28;20099;-45
2022/11/03 12:48:36;;;;;;;4.80;1.40;;;12.90;99.90;;;;;;5077176;28;20359;-49
2022/11/03 12:51:02;;;;;;;2.10;1.20;;;12.90;99.90;;;;;;5072267;28;20478;-52
2022/11/03 12:53:27;;;;;;;3.53;1.55;;;12.90;99.90;;;;;;5073775;28;20048;-45
2022/11/03 12:55:53;;;;;;;2.50;1.40;;;12.80;99.90;;;;;;5071962;28;20052;-50
2022/11/03 12:58:19;;;;;;;4.22;1.70;;;12.80;99.90;;;;;;5073177;28;20036;-47
2022/11/03 13:00:45;;;;;;;3.22;1.98;;;12.70;99.90;;;;;;5077486;28;20048;-51
2022/11/03 13:03:10;;;;;;;3.53;1.80;;;12.80;99.90;;;;;;5070915;28;20025;-49
2022/11/03 13:05:36;;;;;;;2.63;1.45;;;12.80;99.90;;;;;;5072822;28;20028;-51
2022/11/03 13:08:01;;;;;;;3.53;1.55;;;12.70;99.90;;;;;;5071977;28;20115;-53
2022/11/03 13:10:27;;;;;;;3.22;1.67;;;12.80;99.90;;;;;;5070999;28;20439;-48
2022/11/03 13:12:52;;;;;;;3.28;2.30;;;12.70;99.90;;;;;;5078363;28;20028;-47
2022/11/03 13:15:18;;;;;;;6.00;1.92;;;12.70;99.90;;;;;;5091006;28;20067;-47
2022/11/03 13:17:44;;;;;;;2.58;1.70;;;12.70;99.90;;;;;;5091599;28;20076;-49